Tennille, Georgia
Current Conditions -  °F | °C
As of 5:15 PM on Thursday 18 Dec 2014 (Local Time) from KOKZ Reporting Station
Clear Clear  
Wind Chill: 55°   Ceiling: Unl
Heat Index: 55°   Visibility: 10mi
Dew Point: 43°   Wind: 0mph
Humidity: 63%   Direction: NA
Pressure: 30.11"   Gusts: NA
Location:  32.94°N, 82.81°W
Report Text: KOKZ 182215Z AUTO 00000KT 10SM CLR 13/06 A3011 RMK AO2 T01290061
Loading
Personal Weather Stations






























Interactive Weather Map New forecast layout! Learn more

10-Day Weather Forecast

Advertisements
Track Severe Weather on mobile